Time;durP1;ratioP1;P1;durP2;ratioP2;P2;SDS_P1;SDS_P2;PMS_P1;PMS_P2;Temp;Humidity;BMP_temperature;BMP_pressure;BME280_temperature;BME280_humidity;BME280_pressure;Samples;Min_cycle;Max_cycle;Signal;HPM_P1;HPM_P2
2022/01/07 00:01:03;;;;;;;;;21.00;14.00;;;;;5.74;66.90;101234.16;5056766;28;45739;-66
2022/01/07 00:03:29;;;;;;;;;19.75;11.25;;;;;5.70;66.16;101233.34;5039302;28;45583;-64
2022/01/07 00:05:55;;;;;;;;;13.25;12.00;;;;;5.52;66.22;101228.53;5057374;28;45427;-63
2022/01/07 00:08:20;;;;;;;;;13.25;12.75;;;;;5.54;67.22;101232.00;5057495;28;45468;-63
2022/01/07 00:10:46;;;;;;;;;12.00;11.00;;;;;5.48;67.98;101208.41;5057882;28;45498;-68
2022/01/07 00:13:12;;;;;;;;;11.25;11.25;;;;;5.42;68.51;101208.56;5058369;28;45586;-66
2022/01/07 00:15:38;;;;;;;;;9.75;8.75;;;;;5.39;68.93;101206.88;5057427;28;46351;-64
2022/01/07 00:18:05;;;;;;;;;19.75;13.75;;;;;5.34;69.44;101195.59;5039005;28;45379;-66
2022/01/07 00:20:30;;;;;;;;;16.50;12.25;;;;;5.35;68.14;101193.81;5057329;28;45421;-63
2022/01/07 00:22:56;;;;;;;;;11.75;11.25;;;;;5.25;68.15;101188.75;5039183;28;45465;-67
2022/01/07 00:25:23;;;;;;;;;11.25;11.25;;;;;5.17;69.29;101188.06;5056975;28;46271;-64
2022/01/07 00:27:49;;;;;;;;;13.75;11.75;;;;;5.13;71.74;101180.28;5038940;28;45824;-62
2022/01/07 00:30:15;;;;;;;;;12.75;11.25;;;;;5.11;71.13;101177.69;5038849;28;45484;-64
2022/01/07 00:32:41;;;;;;;;;17.25;11.50;;;;;5.09;72.35;101181.25;5057450;28;45628;-62
2022/01/07 00:35:08;;;;;;;;;11.75;11.50;;;;;4.98;71.91;101168.34;5056941;28;45509;-64
2022/01/07 00:37:34;;;;;;;;;14.50;10.50;;;;;4.97;72.93;101164.84;5056134;28;45430;-62
2022/01/07 00:40:01;;;;;;;;;9.50;9.50;;;;;4.93;73.14;101162.28;5038821;28;45260;-67
2022/01/07 00:42:27;;;;;;;;;11.25;9.75;;;;;4.92;71.73;101168.47;5039341;28;45286;-68
2022/01/07 00:44:52;;;;;;;;;10.50;10.50;;;;;4.85;71.93;101153.72;5038928;28;47430;-62
2022/01/07 00:47:18;;;;;;;;;11.25;9.75;;;;;4.92;71.88;101164.06;5057190;28;45332;-65
2022/01/07 00:49:44;;;;;;;;;21.75;11.00;;;;;4.85;72.98;101156.34;5057204;28;45244;-65
2022/01/07 00:52:10;;;;;;;;;12.50;12.25;;;;;4.88;73.21;101166.81;5039448;28;45370;-68
2022/01/07 00:54:35;;;;;;;;;9.00;9.00;;;;;4.78;73.24;101155.59;5056165;28;46294;-63
2022/01/07 00:57:01;;;;;;;;;12.75;11.00;;;;;4.85;74.06;101166.88;5056340;28;45425;-68
2022/01/07 00:59:26;;;;;;;;;13.25;11.50;;;;;4.80;72.17;101158.19;5056888;28;45490;-68
2022/01/07 01:01:51;;;;;;;;;12.00;10.25;;;;;4.79;74.02;101159.97;5056767;28;45530;-67
2022/01/07 01:04:18;;;;;;;;;14.00;9.50;;;;;4.81;73.14;101167.84;5057077;28;45346;-67
2022/01/07 01:06:45;;;;;;;;;10.50;8.75;;;;;4.76;73.82;101160.06;5056650;28;45395;-65
2022/01/07 01:09:12;;;;;;;;;10.00;10.00;;;;;4.76;74.42;101152.16;5056827;28;45444;-63
2022/01/07 01:11:38;;;;;;;;;2.75;2.00;;;;;4.65;73.46;101128.69;5055395;28;45382;-68
2022/01/07 01:14:04;;;;;;;;;11.25;10.75;;;;;4.74;73.15;101154.81;5056164;28;45481;-67
2022/01/07 01:16:30;;;;;;;;;16.25;10.75;;;;;4.77;72.63;101145.09;5038477;28;45590;-67
2022/01/07 01:18:56;;;;;;;;;10.75;9.25;;;;;4.83;72.31;101142.34;5056900;28;45351;-68
2022/01/07 01:21:21;;;;;;;;;11.00;9.75;;;;;4.82;71.96;101130.03;5057136;28;45847;-64
2022/01/07 01:23:47;;;;;;;;;11.50;7.75;;;;;4.78;72.60;101133.66;5056457;28;46643;-68
2022/01/07 01:26:13;;;;;;;;;11.25;10.00;;;;;4.84;72.97;101144.06;5037316;28;45388;-66
2022/01/07 01:28:39;;;;;;;;;8.00;8.00;;;;;4.80;73.19;101142.38;5056563;28;45486;-69
2022/01/07 01:31:05;;;;;;;;;7.50;7.50;;;;;4.80;73.46;101145.03;5056167;28;45551;-65
2022/01/07 01:33:31;;;;;;;;;10.75;9.75;;;;;4.81;72.38;101125.69;5056087;28;45390;-64
2022/01/07 01:35:56;;;;;;;;;11.00;10.00;;;;;4.82;73.59;101136.22;5055930;28;45498;-63
2022/01/07 01:38:21;;;;;;;;;13.75;12.00;;;;;4.90;72.55;101133.38;5037211;28;46921;-64
2022/01/07 01:40:47;;;;;;;;;14.00;11.00;;;;;4.85;72.85;101133.50;5056253;28;45701;-64
2022/01/07 01:43:13;;;;;;;;;12.25;12.25;;;;;4.83;72.55;101116.00;5037857;28;47442;-64
2022/01/07 01:45:38;;;;;;;;;12.50;11.00;;;;;4.76;72.42;101122.28;5055959;28;45442;-63
2022/01/07 01:48:04;;;;;;;;;10.00;8.00;;;;;4.80;72.83;101121.31;5056125;28;45362;-63
2022/01/07 01:50:29;;;;;;;;;13.25;10.75;;;;;4.84;72.58;101128.25;5055911;28;45489;-65
2022/01/07 01:52:57;;;;;;;;;9.50;5.00;;;;;4.83;72.54;101131.81;5055725;28;45444;-66
2022/01/07 01:55:25;;;;;;;;;9.50;9.50;;;;;4.90;72.47;101138.63;5055450;28;45444;-63
2022/01/07 01:57:52;;;;;;;;;10.75;10.75;;;;;4.90;72.67;101139.50;5055970;28;45603;-65
2022/01/07 02:00:19;;;;;;;;;8.25;7.25;;;;;4.92;72.41;101131.56;5055961;28;45644;-67
2022/01/07 02:02:44;;;;;;;;;15.00;9.25;;;;;4.94;72.80;101124.47;5055457;28;45459;-68
2022/01/07 02:05:10;;;;;;;;;10.50;10.50;;;;;4.97;72.10;101121.78;5055735;28;45759;-67
2022/01/07 02:07:38;;;;;;;;;14.00;11.75;;;;;5.03;72.50;101121.63;5055501;28;45933;-64
2022/01/07 02:10:05;;;;;;;;;9.25;9.25;;;;;5.07;73.30;101125.91;5055671;28;45727;-68
2022/01/07 02:12:30;;;;;;;;;16.50;13.50;;;;;5.09;73.18;101120.63;5055344;28;47236;-70
2022/01/07 02:14:56;;;;;;;;;9.00;8.00;;;;;5.04;72.54;101115.44;5055965;28;45314;-68
2022/01/07 02:17:23;;;;;;;;;11.75;11.75;;;;;5.08;72.21;101110.94;5055552;28;45296;-69
2022/01/07 02:19:50;;;;;;;;;9.25;8.75;;;;;5.13;72.98;101115.22;5055763;28;45375;-69
2022/01/07 02:22:19;;;;;;;;;12.25;9.25;;;;;5.19;72.92;101112.41;5055795;28;45474;-68
2022/01/07 02:24:48;;;;;;;;;9.50;8.00;;;;;5.18;72.56;101097.50;5059633;28;45382;-70
2022/01/07 02:27:15;;;;;;;;;10.75;9.25;;;;;5.22;71.66;101107.09;5060098;28;45265;-69
2022/01/07 02:29:45;;;;;;;;;14.00;11.00;;;;;5.13;72.70;101083.59;5059770;28;45585;-64
2022/01/07 02:32:10;;;;;;;;;8.50;8.50;;;;;5.21;72.58;101086.03;5059186;28;45355;-64
2022/01/07 02:34:36;;;;;;;;;8.50;8.50;;;;;5.20;71.46;101084.28;5039702;28;45306;-65
2022/01/07 02:37:02;;;;;;;;;11.50;10.00;;;;;5.28;72.53;101106.91;5059158;28;45435;-64
2022/01/07 02:39:28;;;;;;;;;11.00;11.00;;;;;5.24;72.21;101085.94;5059045;28;45553;-63
2022/01/07 02:41:53;;;;;;;;;8.75;8.00;;;;;5.26;72.18;101094.69;5059187;28;46264;-64
2022/01/07 02:44:19;;;;;;;;;13.50;11.75;;;;;5.22;73.00;101062.25;5059245;28;45341;-66
2022/01/07 02:46:45;;;;;;;;;10.00;10.00;;;;;5.26;72.60;101063.91;5040520;28;45470;-65
2022/01/07 02:49:16;;;;;;;;;9.75;9.00;;;;;5.33;72.50;101073.38;5058583;28;45662;-62
2022/01/07 02:51:43;;;;;;;;;9.25;8.75;;;;;5.30;72.94;101073.44;5058986;28;45251;-65
2022/01/07 02:54:09;;;;;;;;;11.50;9.50;;;;;5.35;72.10;101075.13;5058721;28;45426;-65
2022/01/07 02:56:36;;;;;;;;;7.75;7.75;;;;;5.28;72.84;101077.91;5058591;28;45359;-69
2022/01/07 02:59:03;;;;;;;;;8.50;8.50;;;;;5.23;72.56;101064.00;5040679;28;45537;-62
2022/01/07 03:01:29;;;;;;;;;8.00;6.00;;;;;5.28;73.00;101066.50;5058476;28;45512;-66
2022/01/07 03:03:54;;;;;;;;;14.75;7.00;;;;;5.26;72.62;101061.25;5058905;28;45357;-62
2022/01/07 03:06:21;;;;;;;;;6.50;4.75;;;;;5.31;72.41;101067.28;5059006;28;45486;-68
2022/01/07 03:08:48;;;;;;;;;12.25;7.50;;;;;5.39;72.07;101063.56;5058453;28;45487;-67
2022/01/07 03:11:14;;;;;;;;;8.75;7.75;;;;;5.37;72.47;101070.66;5058468;28;45418;-65
2022/01/07 03:13:40;;;;;;;;;8.75;8.75;;;;;5.38;71.72;101072.41;5040691;28;46106;-65
2022/01/07 03:16:05;;;;;;;;;7.75;7.75;;;;;5.28;71.81;101059.44;5058391;28;45352;-65
2022/01/07 03:18:31;;;;;;;;;14.50;10.25;;;;;5.31;72.67;101059.34;5058494;28;45360;-63
2022/01/07 03:20:58;;;;;;;;;9.25;7.75;;;;;5.22;72.64;101054.34;5058722;28;46198;-65
2022/01/07 03:23:24;;;;;;;;;8.00;6.00;;;;;5.25;73.15;101062.19;5055706;28;45592;-68
2022/01/07 03:25:50;;;;;;;;;5.75;5.75;;;;;5.28;73.58;101054.16;5052507;28;45482;-63
2022/01/07 03:28:15;;;;;;;;;10.50;9.00;;;;;5.35;72.45;101068.06;5058346;28;45567;-68
2022/01/07 03:30:41;;;;;;;;;10.50;9.25;;;;;5.26;73.31;101050.72;5057937;28;46261;-68
2022/01/07 03:33:07;;;;;;;;;7.50;5.50;;;;;5.32;71.91;101045.25;5039397;28;45426;-67
2022/01/07 03:35:33;;;;;;;;;8.00;7.25;;;;;5.32;72.28;101052.31;5058273;28;45189;-65
2022/01/07 03:37:59;;;;;;;;;6.00;6.00;;;;;5.30;72.71;101031.25;5058771;28;45506;-63
2022/01/07 03:40:24;;;;;;;;;10.00;10.00;;;;;5.33;72.38;101054.91;5023045;28;45967;-66
2022/01/07 03:42:51;;;;;;;;;7.50;7.50;;;;;5.30;72.52;101055.00;5057692;28;45570;-67
2022/01/07 03:45:18;;;;;;;;;11.25;7.75;;;;;5.26;72.04;101032.25;5039771;28;45435;-67
2022/01/07 03:47:44;;;;;;;;;8.75;8.00;;;;;5.38;72.58;101057.44;5057895;28;45472;-66
2022/01/07 03:50:12;;;;;;;;;7.50;7.50;;;;;5.39;72.00;101050.38;5057167;28;45485;-67
2022/01/07 03:52:38;;;;;;;;;9.25;7.50;;;;;5.36;71.53;101029.38;5039732;28;45483;-64
2022/01/07 03:55:07;;;;;;;;;7.00;7.00;;;;;5.42;71.96;101037.09;5057947;28;45363;-67
2022/01/07 03:57:32;;;;;;;;;7.75;7.75;;;;;5.43;72.47;101049.38;5057957;28;45560;-68
2022/01/07 03:59:57;;;;;;;;;8.00;5.00;;;;;5.46;71.47;101038.75;5057308;28;45539;-69
2022/01/07 04:02:23;;;;;;;;;7.00;7.00;;;;;5.37;72.06;101020.56;5057676;28;45425;-68
2022/01/07 04:04:48;;;;;;;;;10.00;7.50;;;;;5.42;71.59;101029.19;5057860;28;45410;-70
2022/01/07 04:07:14;;;;;;;;;7.50;6.75;;;;;5.42;70.85;101031.84;5057681;28;45325;-69
2022/01/07 04:09:40;;;;;;;;;6.00;6.00;;;;;5.41;71.36;101003.72;5039431;28;46002;-66
2022/01/07 04:12:06;;;;;;;;;5.00;5.00;;;;;5.50;71.37;101030.72;5038806;28;45426;-68
2022/01/07 04:14:31;;;;;;;;;6.25;6.25;;;;;5.48;71.39;101015.84;5057644;28;45226;-64
2022/01/07 04:16:59;;;;;;;;;2.00;2.00;;;;;5.53;71.36;101011.28;5058058;28;45301;-66
2022/01/07 04:19:25;;;;;;;;;7.75;7.00;;;;;5.50;71.24;101008.75;5056970;28;45459;-66
2022/01/07 04:21:51;;;;;;;;;6.75;6.75;;;;;5.52;70.90;101015.72;5056758;28;45489;-66
2022/01/07 04:24:17;;;;;;;;;5.00;5.00;;;;;5.43;71.39;101012.47;5039117;28;45863;-69
2022/01/07 04:26:43;;;;;;;;;4.25;4.25;;;;;5.52;70.75;101013.06;5039723;28;45366;-66
2022/01/07 04:29:08;;;;;;;;;7.25;4.00;;;;;5.53;71.64;101016.56;5038461;28;46011;-63
2022/01/07 04:31:34;;;;;;;;;4.25;4.25;;;;;5.50;71.17;101006.97;5057252;28;45447;-62
2022/01/07 04:33:59;;;;;;;;;8.00;8.00;;;;;5.51;71.35;101021.91;5038592;28;45355;-67
2022/01/07 04:36:25;;;;;;;;;7.00;7.00;;;;;5.52;71.24;101010.44;5057304;28;45954;-65
2022/01/07 04:38:51;;;;;;;;;5.75;5.00;;;;;5.55;71.24;101014.75;5038671;28;46356;-63
2022/01/07 04:41:17;;;;;;;;;6.75;4.75;;;;;5.53;71.22;101011.28;5039279;28;45399;-66
2022/01/07 04:43:42;;;;;;;;;4.50;4.50;;;;;5.55;71.32;101012.13;5056997;28;45342;-63
2022/01/07 04:46:08;;;;;;;;;7.00;5.00;;;;;5.55;71.36;101012.13;5056471;28;45489;-65
2022/01/07 04:48:33;;;;;;;;;11.00;5.00;;;;;5.62;71.74;101026.88;5056786;28;46341;-63
2022/01/07 04:50:59;;;;;;;;;11.25;5.50;;;;;5.68;70.78;101042.50;5056945;28;45245;-66
2022/01/07 04:53:26;;;;;;;;;2.50;2.50;;;;;5.72;71.10;101036.22;5039127;28;45350;-67
2022/01/07 04:55:53;;;;;;;;;7.75;5.00;;;;;5.69;71.44;101036.31;5057258;28;45330;-66
2022/01/07 04:58:19;;;;;;;;;5.00;5.00;;;;;5.69;70.85;101024.91;5039090;28;47188;-66
2022/01/07 05:00:45;;;;;;;;;5.00;5.00;;;;;5.69;71.50;101017.84;5023321;28;45378;-67
2022/01/07 05:03:12;;;;;;;;;7.50;5.00;;;;;5.73;70.79;101016.88;5056435;28;45304;-67
2022/01/07 05:05:38;;;;;;;;;8.25;6.00;;;;;5.71;70.72;101013.38;5057098;28;45225;-64
2022/01/07 05:08:04;;;;;;;;;5.00;3.50;;;;;5.79;71.60;101021.09;5056204;28;46608;-65
2022/01/07 05:10:30;;;;;;;;;5.00;3.50;;;;;5.78;70.68;101014.09;5038450;28;45381;-66
2022/01/07 05:12:56;;;;;;;;;7.00;5.00;;;;;5.71;71.74;100992.28;5038653;28;45402;-64
2022/01/07 05:15:23;;;;;;;;;8.00;4.00;;;;;5.76;70.75;100993.03;5022187;28;45407;-62
2022/01/07 05:17:49;;;;;;;;;4.50;4.00;;;;;5.81;71.37;100988.47;5055367;28;45560;-69
2022/01/07 05:20:16;;;;;;;;;5.50;5.50;;;;;5.77;71.21;100984.19;5056180;28;45418;-65
2022/01/07 05:22:43;;;;;;;;;4.25;4.25;;;;;5.75;70.92;100987.78;5056123;28;45507;-67
2022/01/07 05:25:10;;;;;;;;;5.50;5.00;;;;;5.72;71.80;100999.28;5055722;28;45456;-69
2022/01/07 05:27:36;;;;;;;;;8.00;4.00;;;;;5.75;71.37;101008.91;5056293;28;45489;-65
2022/01/07 05:30:05;;;;;;;;;4.50;4.50;;;;;5.77;71.30;101007.94;5056217;28;45466;-64
2022/01/07 05:32:31;;;;;;;;;5.00;3.50;;;;;5.73;70.84;101011.59;5038078;28;45564;-65
2022/01/07 05:34:56;;;;;;;;;6.50;5.00;;;;;5.71;71.25;100997.56;5055852;28;45248;-66
2022/01/07 05:37:22;;;;;;;;;3.00;2.50;;;;;5.76;71.21;101008.00;5056227;28;45853;-67
2022/01/07 05:39:48;;;;;;;;;5.25;4.00;;;;;5.72;71.26;101007.19;5055854;28;45418;-66
2022/01/07 05:42:13;;;;;;;;;4.00;2.00;;;;;5.78;71.51;101003.53;5056547;28;45283;-63
2022/01/07 05:44:38;;;;;;;;;3.00;3.00;;;;;5.76;70.78;101000.06;5056269;28;45489;-68
2022/01/07 05:47:04;;;;;;;;;7.00;4.00;;;;;5.74;71.47;101005.41;5056044;28;46450;-64
2022/01/07 05:49:30;;;;;;;;;5.75;5.50;;;;;5.68;71.74;100999.44;5056320;28;45472;-63
2022/01/07 05:51:55;;;;;;;;;8.50;5.00;;;;;5.74;70.91;101010.69;5056037;28;45414;-67
2022/01/07 05:54:21;;;;;;;;;4.00;4.00;;;;;5.71;71.35;101005.47;5055817;28;45727;-66
2022/01/07 05:56:46;;;;;;;;;1.50;1.25;;;;;5.72;71.58;101015.13;5055560;28;45377;-63
2022/01/07 05:59:12;;;;;;;;;4.75;4.75;;;;;5.72;71.20;101006.34;5055656;28;45425;-69
2022/01/07 06:01:37;;;;;;;;;3.00;3.00;;;;;5.71;71.19;101002.84;5055381;28;45906;-64
2022/01/07 06:04:03;;;;;;;;;0.75;0.75;;;;;5.74;71.09;101018.59;5056242;28;45606;-63
2022/01/07 06:06:28;;;;;;;;;6.00;4.00;;;;;5.74;71.59;101012.47;5055072;28;45379;-66
2022/01/07 06:08:53;;;;;;;;;4.00;4.00;;;;;5.70;71.12;101009.03;5055510;28;45347;-65
2022/01/07 06:11:19;;;;;;;;;6.00;4.50;;;;;5.71;72.07;101005.47;5033042;28;45418;-64
2022/01/07 06:13:44;;;;;;;;;2.75;2.00;;;;;5.74;72.05;101008.03;5061289;28;45334;-67
2022/01/07 06:16:10;;;;;;;;;4.75;4.00;;;;;5.75;72.17;101001.00;5060583;28;46294;-62
2022/01/07 06:18:39;;;;;;;;;6.00;4.50;;;;;5.76;72.07;101005.34;5063764;28;45423;-66
2022/01/07 06:21:05;;;;;;;;;4.75;4.75;;;;;5.82;71.94;101013.94;5056015;28;45402;-66
2022/01/07 06:23:30;;;;;;;;;7.50;4.50;;;;;5.84;72.32;101017.41;5037762;28;45225;-62
2022/01/07 06:25:56;;;;;;;;;4.00;4.00;;;;;5.83;71.96;101023.59;5050172;28;46201;-65
2022/01/07 06:28:21;;;;;;;;;5.50;2.00;;;;;5.83;71.70;101020.94;5050589;28;45513;-63
2022/01/07 06:30:46;;;;;;;;;11.25;6.50;;;;;5.86;72.14;101030.56;5050969;28;46584;-63
2022/01/07 06:33:12;;;;;;;;;6.25;5.00;;;;;5.83;71.88;101018.31;5062168;28;46248;-66
2022/01/07 06:35:38;;;;;;;;;13.25;6.50;;;;;5.90;72.38;101024.31;5046429;28;47259;-67
2022/01/07 06:38:04;;;;;;;;;5.25;2.50;;;;;5.95;72.50;101021.53;5037695;28;45726;-63
2022/01/07 06:40:30;;;;;;;;;4.25;4.25;;;;;5.96;71.90;101008.28;5052285;28;45390;-68
2022/01/07 06:42:55;;;;;;;;;6.50;4.50;;;;;6.04;71.46;101010.69;5053852;28;45476;-63
2022/01/07 06:45:20;;;;;;;;;6.25;4.25;;;;;6.04;71.69;101006.28;5055171;28;45754;-66
2022/01/07 06:47:46;;;;;;;;;2.00;2.00;;;;;6.06;72.44;101007.09;5055445;28;45212;-64
2022/01/07 06:50:12;;;;;;;;;5.00;4.00;;;;;6.02;72.05;100999.31;5055523;28;45182;-65
2022/01/07 06:52:38;;;;;;;;;2.00;2.00;;;;;6.11;72.55;101006.94;5055119;28;45462;-63
2022/01/07 06:55:04;;;;;;;;;4.00;4.00;;;;;6.10;72.22;101005.22;5037336;28;46256;-66
2022/01/07 06:57:30;;;;;;;;;5.25;5.00;;;;;6.09;72.31;100996.44;5054437;28;45494;-68
2022/01/07 06:59:55;;;;;;;;;4.00;4.00;;;;;6.06;71.64;100993.88;5055327;28;45517;-65
2022/01/07 07:02:21;;;;;;;;;7.75;3.50;;;;;6.18;72.61;101008.50;5055306;28;45567;-72
2022/01/07 07:04:46;;;;;;;;;4.00;4.00;;;;;6.20;72.32;101017.22;5028148;28;47747;-62
2022/01/07 07:07:13;;;;;;;;;9.00;4.00;;;;;6.24;71.63;101018.00;5036886;28;45415;-66
2022/01/07 07:09:39;;;;;;;;;6.50;2.00;;;;;6.21;71.86;101008.38;5028424;28;45541;-66
2022/01/07 07:12:04;;;;;;;;;5.00;5.00;;;;;6.20;72.96;101022.50;5058844;28;45535;-63
2022/01/07 07:14:30;;;;;;;;;5.75;4.75;;;;;6.21;72.25;101019.81;5021584;28;47032;-69
2022/01/07 07:16:56;;;;;;;;;4.00;2.00;;;;;6.22;72.14;101024.19;5045188;28;45329;-65
2022/01/07 07:19:22;;;;;;;;;4.00;4.00;;;;;6.13;72.74;101016.56;5057498;28;45395;-68
2022/01/07 07:21:48;;;;;;;;;8.50;6.75;;;;;6.28;72.30;101033.72;5058952;28;45534;-65
2022/01/07 07:24:13;;;;;;;;;4.00;4.00;;;;;6.32;72.16;101043.25;5052268;28;46840;-65
2022/01/07 07:26:39;;;;;;;;;4.50;4.50;;;;;6.34;72.14;101033.50;5058184;28;45455;-64
2022/01/07 07:29:04;;;;;;;;;5.00;3.00;;;;;6.37;71.90;101030.75;5058289;28;45957;-67
2022/01/07 07:31:31;;;;;;;;;4.00;4.00;;;;;6.38;72.03;101032.50;5055616;28;45908;-64
2022/01/07 07:34:18;;;;;;;;;2.50;2.50;;;;;6.36;72.50;101021.09;5035792;28;47035;-68
2022/01/07 07:36:44;;;;;;;;;4.50;4.00;;;;;6.45;72.50;101034.03;5056512;28;45555;-65
2022/01/07 07:39:11;;;;;;;;;5.50;4.50;;;;;6.48;71.98;101039.22;5059534;28;46008;-66
2022/01/07 07:41:48;;;;;;;;;5.00;5.00;;;;;6.48;72.99;101039.22;5037438;28;45251;-63
2022/01/07 07:44:14;;;;;;;;;5.00;4.25;;;;;6.50;73.19;101053.22;5039675;28;46900;-63
2022/01/07 07:46:44;;;;;;;;;8.00;4.00;;;;;6.52;72.75;101055.00;5038318;28;45502;-66
2022/01/07 07:49:11;;;;;;;;;4.00;4.00;;;;;6.51;73.72;101054.13;5058545;28;45371;-65
2022/01/07 07:51:36;;;;;;;;;8.50;4.50;;;;;6.55;74.02;101060.16;5057497;28;45466;-65
2022/01/07 07:54:05;;;;;;;;;3.50;3.50;;;;;6.53;73.77;101080.50;5039118;28;46624;-64
2022/01/07 07:56:31;;;;;;;;;12.00;6.00;;;;;6.50;73.97;101061.16;5058222;28;45426;-65
2022/01/07 07:59:00;;;;;;;;;5.00;4.00;;;;;6.49;74.64;101064.72;5053721;28;45420;-62
2022/01/07 08:01:26;;;;;;;;;1.25;1.00;;;;;6.37;75.07;101043.97;5037853;28;45555;-63
2022/01/07 08:03:52;;;;;;;;;6.00;4.50;;;;;6.39;76.17;101055.38;5046117;28;46611;-65
2022/01/07 08:06:18;;;;;;;;;7.50;4.50;;;;;6.36;76.91;101044.88;5039098;28;45472;-63
2022/01/07 08:08:46;;;;;;;;;7.25;5.00;;;;;6.43;77.29;101064.94;5058282;28;45284;-64
2022/01/07 08:11:12;;;;;;;;;6.00;4.00;;;;;6.41;77.32;101066.75;5056755;28;45548;-64
2022/01/07 08:16:27;;;;;;;;;5.00;5.00;;;;;6.30;77.62;101060.06;5056665;28;45727;-64
2022/01/07 08:18:56;;;;;;;;;4.00;4.00;;;;;6.35;77.93;101064.28;5035049;28;45410;-65
2022/01/07 08:21:24;;;;;;;;;5.00;4.00;;;;;6.36;76.52;101065.16;5038914;28;45927;-63
2022/01/07 08:23:54;;;;;;;;;5.00;5.00;;;;;6.32;76.82;101072.31;5057336;28;45402;-64
2022/01/07 08:26:24;;;;;;;;;3.50;3.50;;;;;6.37;76.13;101064.25;5057391;28;45433;-62
2022/01/07 08:28:55;;;;;;;;;2.00;2.00;;;;;6.35;77.16;101060.78;5058037;28;45406;-63
2022/01/07 08:36:34;;;;;;;;;2.50;2.50;;;;;6.38;77.02;101061.56;5054628;28;45311;-63
2022/01/07 08:39:00;;;;;;;;;6.25;2.00;;;;;6.34;77.38;101056.41;5055547;28;45475;-62
2022/01/07 08:41:28;;;;;;;;;2.00;2.00;;;;;6.36;76.69;101065.16;5056942;28;45399;-62
2022/01/07 08:43:54;;;;;;;;;3.75;2.00;;;;;6.36;77.56;101057.22;5056050;28;47033;-62
2022/01/07 08:46:20;;;;;;;;;5.25;3.50;;;;;6.35;77.25;101053.72;5019973;28;45498;-63
2022/01/07 08:48:47;;;;;;;;;4.25;4.25;;;;;6.35;77.43;101050.22;5056372;28;45382;-62
2022/01/07 08:51:13;;;;;;;;;5.00;2.50;;;;;6.33;76.64;101034.41;5056658;28;46041;-63
2022/01/07 08:53:38;;;;;;;;;5.00;4.00;;;;;6.36;77.57;101028.16;5048112;28;45523;-62
2022/01/07 08:56:05;;;;;;;;;4.25;2.00;;;;;6.34;77.68;101012.38;5038194;28;45387;-64
2022/01/07 08:58:31;;;;;;;;;2.00;2.00;;;;;6.31;77.89;100999.28;5056638;28;45264;-65
2022/01/07 09:00:57;;;;;;;;;2.50;1.50;;;;;6.37;76.91;100983.22;5033757;28;45446;-62
2022/01/07 09:03:23;;;;;;;;;3.50;1.50;;;;;6.34;77.08;100951.63;5055774;28;45394;-62
2022/01/07 09:05:48;;;;;;;;;1.75;1.75;;;;;6.35;76.95;100969.19;5055215;28;45415;-63
2022/01/07 09:08:14;;;;;;;;;4.25;1.00;;;;;6.28;76.02;100982.66;5032260;28;47222;-62
2022/01/07 09:10:40;;;;;;;;;3.50;2.00;;;;;6.18;76.93;101019.06;5056559;28;45367;-62
2022/01/07 09:13:07;;;;;;;;;0.50;0.50;;;;;6.24;76.31;101029.41;5037099;28;46150;-62
2022/01/07 09:15:32;;;;;;;;;5.00;2.50;;;;;6.32;76.47;101043.25;5056472;28;45346;-64
2022/01/07 09:17:58;;;;;;;;;2.00;0.00;;;;;6.38;76.31;101051.00;5041566;28;45362;-63
2022/01/07 09:20:24;;;;;;;;;1.25;1.25;;;;;6.40;76.68;101062.38;5067252;28;45429;-64
2022/01/07 09:22:50;;;;;;;;;0.75;0.00;;;;;6.46;77.03;101056.03;5037069;28;47723;-63
2022/01/07 09:25:17;;;;;;;;;3.75;1.75;;;;;6.50;76.83;101044.44;5053504;28;45454;-62
2022/01/07 09:27:43;;;;;;;;;0.50;0.50;;;;;6.53;75.85;101040.88;5036847;28;45304;-66
2022/01/07 09:30:12;;;;;;;;;5.00;2.00;;;;;6.60;76.87;101047.66;5050299;28;45526;-64
2022/01/07 09:32:39;;;;;;;;;2.00;1.00;;;;;6.60;75.61;101045.88;5055057;28;45454;-62
2022/01/07 09:35:06;;;;;;;;;2.25;2.25;;;;;6.59;75.82;101036.22;5037813;28;45808;-64
2022/01/07 09:37:32;;;;;;;;;4.00;2.00;;;;;6.46;75.84;101025.19;5027817;28;45461;-64
2022/01/07 09:40:00;;;;;;;;;1.00;1.00;;;;;6.58;75.08;101050.34;5056103;28;45235;-63
2022/01/07 09:42:26;;;;;;;;;1.00;1.00;;;;;6.53;75.41;101046.16;5038387;28;46347;-65
2022/01/07 09:44:51;;;;;;;;;1.00;1.00;;;;;6.57;75.70;101040.69;5032736;28;45292;-63
2022/01/07 09:47:17;;;;;;;;;1.75;1.75;;;;;6.65;74.95;101049.25;5052368;28;45624;-62
2022/01/07 09:49:43;;;;;;;;;1.00;1.00;;;;;6.64;74.78;101044.91;5055178;28;45616;-65
2022/01/07 09:52:08;;;;;;;;;3.00;1.00;;;;;6.60;74.60;101032.66;5054503;28;45480;-65
2022/01/07 09:54:37;;;;;;;;;2.00;1.00;;;;;6.64;74.81;101039.59;5055567;28;45348;-63
2022/01/07 09:57:07;;;;;;;;;1.00;1.00;;;;;6.63;74.69;101032.56;5055817;28;45436;-65
2022/01/07 09:59:33;;;;;;;;;2.75;0.75;;;;;6.59;75.09;101024.78;5038120;28;45576;-65
2022/01/07 10:02:00;;;;;;;;;2.00;1.25;;;;;6.65;74.43;101036.03;5041857;28;48003;-66
2022/01/07 10:04:35;;;;;;;;;4.00;1.50;;;;;6.66;74.68;101027.19;5036385;28;45739;-63
2022/01/07 10:07:20;;;;;;;;;1.00;1.00;;;;;6.78;74.83;101031.22;5055453;28;45268;-63
2022/01/07 10:10:17;;;;;;;;;1.00;1.00;;;;;6.86;73.50;101039.75;5056613;28;45378;-64
2022/01/07 10:12:55;;;;;;;;;1.00;1.00;;;;;7.00;73.66;101026.03;5026103;28;47018;-65
2022/01/07 10:15:29;;;;;;;;;1.50;1.50;;;;;7.06;72.22;101026.72;5055901;28;45285;-65
2022/01/07 10:18:09;;;;;;;;;1.00;1.00;;;;;7.02;72.54;101030.34;5055822;28;45409;-65
2022/01/07 10:20:42;;;;;;;;;1.50;1.00;;;;;7.07;72.56;101028.44;5054064;28;45689;-65
2022/01/07 10:23:23;;;;;;;;;0.50;0.50;;;;;7.04;71.78;101023.25;5050620;28;45678;-64
2022/01/07 10:25:53;;;;;;;;;0.25;0.25;;;;;7.02;72.39;101009.19;5052193;28;45288;-64
2022/01/07 10:28:20;;;;;;;;;1.75;0.00;;;;;6.99;72.14;101022.53;5055529;28;45453;-64
2022/01/07 10:30:50;;;;;;;;;1.25;1.00;;;;;7.06;72.14;101020.56;5054604;28;45391;-64
2022/01/07 10:33:19;;;;;;;;;0.50;0.00;;;;;7.05;71.93;101003.84;5038712;28;46291;-64
2022/01/07 10:35:47;;;;;;;;;1.00;1.00;;;;;7.17;72.13;101004.31;5035988;28;45478;-62
2022/01/07 10:38:25;;;;;;;;;4.25;1.00;;;;;7.27;72.09;101005.69;5050127;28;45431;-63
2022/01/07 10:40:53;;;;;;;;;0.25;0.00;;;;;7.29;71.70;101006.50;5035668;28;45397;-63
2022/01/07 10:43:22;;;;;;;;;2.00;2.00;;;;;7.37;71.54;101007.97;5036424;28;46520;-65
2022/01/07 10:45:58;;;;;;;;;0.00;0.00;;;;;7.49;71.36;100997.84;5059327;28;45752;-65
2022/01/07 10:48:39;;;;;;;;;0.50;0.00;;;;;7.38;71.52;100987.66;5059110;28;45406;-65
2022/01/07 10:51:13;;;;;;;;;1.75;1.00;;;;;7.45;70.81;100997.13;5059172;28;45438;-67
2022/01/07 10:53:39;;;;;;;;;4.00;1.50;;;;;7.52;70.86;100980.06;5059021;28;47122;-65
2022/01/07 10:56:14;;;;;;;;;2.00;1.00;;;;;7.66;71.01;101000.72;5058055;28;45489;-66
2022/01/07 10:58:45;;;;;;;;;2.00;0.00;;;;;7.66;71.03;100990.13;5038936;28;45398;-65
2022/01/07 11:01:19;;;;;;;;;0.00;0.00;;;;;7.63;70.50;101001.72;5055586;28;47777;-65
2022/01/07 11:03:50;;;;;;;;;2.00;1.00;;;;;7.71;70.23;100997.94;5040267;28;47808;-63
2022/01/07 11:06:15;;;;;;;;;0.00;0.00;;;;;7.74;69.30;100992.50;5056505;28;45576;-65
2022/01/07 11:08:41;;;;;;;;;1.00;1.00;;;;;7.76;69.73;101002.13;5058402;28;45441;-68
2022/01/07 11:11:11;;;;;;;;;1.00;1.00;;;;;7.83;69.84;100993.03;5059256;28;45383;-68
2022/01/07 11:13:37;;;;;;;;;0.75;0.00;;;;;7.84;68.86;100991.25;5058676;28;45391;-72
2022/01/07 11:16:04;;;;;;;;;1.00;0.00;;;;;7.88;68.94;100992.84;5040118;28;45461;-66
2022/01/07 11:18:33;;;;;;;;;0.00;0.00;;;;;7.99;69.01;100982.69;5058815;28;45448;-71
2022/01/07 11:20:59;;;;;;;;;1.50;0.00;;;;;7.97;69.13;100987.19;5058664;28;45557;-70
2022/01/07 11:23:25;;;;;;;;;0.25;0.00;;;;;7.98;68.70;100980.97;5057146;28;46754;-68
2022/01/07 11:26:05;;;;;;;;;1.00;1.00;;;;;7.91;69.06;100963.59;5055893;28;45347;-67
2022/01/07 11:28:31;;;;;;;;;0.00;0.00;;;;;8.03;68.62;100979.00;5035528;28;45371;-70
2022/01/07 11:31:04;;;;;;;;;2.00;0.00;;;;;8.09;68.43;100985.88;5051562;28;46027;-67
2022/01/07 11:33:30;;;;;;;;;0.00;0.00;;;;;8.15;68.90;100989.13;5064387;28;46470;-70
2022/01/07 11:35:56;;;;;;;;;0.00;0.00;;;;;8.17;68.48;101002.28;5057878;28;45379;-66